Time,TemperatureF,DewpointF,PressureIn,WindDirection,WindDirectionDegrees,WindSpeedMPH,WindSpeedGustMPH,Humidity,HourlyPrecipIn,Conditions,Clouds,dailyrainin,SoftwareType,DateUTC
2013-05-07 00:00:00,50.0,49.0,30.09,NNE,14,4.0,9.0,94,-99.99,,,-99.99,,2013-05-07 04:00:00,
2013-05-07 00:33:00,50.0,49.0,30.09,NNE,14,4.0,9.0,94,-99.99,,,-99.99,,2013-05-07 04:33:00,
2013-05-07 00:42:00,50.0,49.0,30.09,NNE,14,4.0,9.0,94,-99.99,,,-99.99,,2013-05-07 04:42:00,
2013-05-07 00:53:00,50.0,49.0,30.09,NNE,14,4.0,9.0,94,-99.99,,,-99.99,,2013-05-07 04:53:00,
2013-05-07 01:00:00,50.0,49.0,30.09,NNE,12,4.0,6.0,95,-99.99,,,-99.99,,2013-05-07 05:00:00,
2013-05-07 01:32:00,50.0,49.0,30.09,NNE,12,4.0,6.0,95,-99.99,,,-99.99,,2013-05-07 05:32:00,
2013-05-07 01:42:00,50.0,49.0,30.09,NNE,12,4.0,6.0,95,-99.99,,,-99.99,,2013-05-07 05:42:00,
2013-05-07 01:52:00,50.0,49.0,30.09,NNE,12,4.0,6.0,95,-99.99,,,-99.99,,2013-05-07 05:52:00,
2013-05-07 02:00:00,50.0,49.0,30.09,NE,53,3.0,7.0,95,-99.99,,,-99.99,,2013-05-07 06:00:00,
2013-05-07 02:22:00,50.0,49.0,30.09,NE,53,3.0,7.0,95,-99.99,,,-99.99,,2013-05-07 06:22:00,
2013-05-07 02:32:00,50.0,49.0,30.09,NE,53,3.0,7.0,95,-99.99,,,-99.99,,2013-05-07 06:32:00,
2013-05-07 02:42:00,50.0,49.0,30.09,NE,53,3.0,7.0,95,-99.99,,,-99.99,,2013-05-07 06:42:00,
2013-05-07 02:52:00,50.0,49.0,30.09,NE,53,3.0,7.0,95,-99.99,,,-99.99,,2013-05-07 06:52:00,
2013-05-07 03:00:00,50.0,49.0,30.06,East,79,3.0,9.0,95,-99.99,,,-99.99,,2013-05-07 07:00:00,
2013-05-07 03:32:00,50.0,49.0,30.06,East,79,3.0,9.0,95,-99.99,,,-99.99,,2013-05-07 07:32:00,
2013-05-07 03:42:00,50.0,49.0,30.06,East,79,3.0,9.0,95,-99.99,,,-99.99,,2013-05-07 07:42:00,
2013-05-07 03:53:00,50.0,49.0,30.06,East,79,3.0,9.0,95,-99.99,,,-99.99,,2013-05-07 07:53:00,
2013-05-07 04:00:00,50.0,49.0,30.06,East,97,1.0,9.0,96,-99.99,,,-99.99,,2013-05-07 08:00:00,
2013-05-07 04:22:00,50.0,49.0,30.06,East,97,1.0,9.0,96,-99.99,,,-99.99,,2013-05-07 08:22:00,
2013-05-07 04:32:00,50.0,49.0,30.06,East,97,1.0,9.0,96,-99.99,,,-99.99,,2013-05-07 08:32:00,
2013-05-07 04:42:00,50.0,49.0,30.06,East,97,1.0,9.0,96,-99.99,,,-99.99,,2013-05-07 08:42:00,
2013-05-07 04:52:00,50.0,49.0,30.06,East,97,1.0,9.0,96,-99.99,,,-99.99,,2013-05-07 08:52:00,
2013-05-07 05:00:00,50.0,49.0,30.06,ENE,73,2.0,10.0,96,-99.99,,,-99.99,,2013-05-07 09:00:00,
2013-05-07 05:23:00,50.0,49.0,30.06,ENE,73,2.0,10.0,96,-99.99,,,-99.99,,2013-05-07 09:23:00,
2013-05-07 05:33:00,50.0,49.0,30.06,ENE,73,2.0,10.0,96,-99.99,,,-99.99,,2013-05-07 09:33:00,
2013-05-07 05:43:00,50.0,49.0,30.06,ENE,73,2.0,10.0,96,-99.99,,,-99.99,,2013-05-07 09:43:00,
2013-05-07 05:52:00,50.0,49.0,30.06,ENE,73,2.0,10.0,96,-99.99,,,-99.99,,2013-05-07 09:52:00,
2013-05-07 06:00:00,50.0,49.0,30.06,WNW,303,4.0,9.0,96,-99.99,,,-99.99,,2013-05-07 10:00:00,
2013-05-07 06:23:00,50.0,49.0,30.06,WNW,303,4.0,9.0,96,-99.99,,,-99.99,,2013-05-07 10:23:00,
2013-05-07 06:33:00,50.0,49.0,30.06,WNW,303,4.0,9.0,96,-99.99,,,-99.99,,2013-05-07 10:33:00,
2013-05-07 06:42:00,50.0,49.0,30.06,WNW,303,4.0,9.0,96,-99.99,,,-99.99,,2013-05-07 10:42:00,
2013-05-07 06:52:00,50.0,49.0,30.06,WNW,303,4.0,9.0,96,-99.99,,,-99.99,,2013-05-07 10:52:00,
2013-05-07 07:00:00,50.0,49.0,30.06,North,0,3.0,12.0,96,-99.99,,,-99.99,,2013-05-07 11:00:00,
2013-05-07 07:22:00,50.0,49.0,30.06,North,0,3.0,12.0,96,-99.99,,,-99.99,,2013-05-07 11:22:00,
2013-05-07 07:32:00,50.0,49.0,30.06,North,0,3.0,12.0,96,-99.99,,,-99.99,,2013-05-07 11:32:00,
2013-05-07 07:42:00,50.0,49.0,30.06,North,0,3.0,12.0,96,-99.99,,,-99.99,,2013-05-07 11:42:00,
2013-05-07 07:52:00,50.0,49.0,30.06,North,0,3.0,12.0,96,-99.99,,,-99.99,,2013-05-07 11:52:00,
2013-05-07 09:00:00,51.0,50.0,30.09,NW,313,6.0,12.0,96,-99.99,,,-99.99,,2013-05-07 13:00:00,
2013-05-07 09:22:00,51.0,50.0,30.09,NW,313,6.0,12.0,96,-99.99,,,-99.99,,2013-05-07 13:22:00,
2013-05-07 09:32:00,51.0,50.0,30.09,NW,313,6.0,12.0,96,-99.99,,,-99.99,,2013-05-07 13:32:00,
2013-05-07 09:42:00,51.0,50.0,30.09,NW,313,6.0,12.0,96,-99.99,,,-99.99,,2013-05-07 13:42:00,
2013-05-07 09:52:00,51.0,50.0,30.09,NW,313,6.0,12.0,96,-99.99,,,-99.99,,2013-05-07 13:52:00,
2013-05-07 10:00:00,52.0,51.0,30.06,North,1,6.0,10.0,96,-99.99,,,-99.99,,2013-05-07 14:00:00,
2013-05-07 10:22:00,52.0,51.0,30.06,North,1,6.0,10.0,96,-99.99,,,-99.99,,2013-05-07 14:22:00,
2013-05-07 10:32:00,52.0,51.0,30.06,North,1,6.0,10.0,96,-99.99,,,-99.99,,2013-05-07 14:32:00,
2013-05-07 10:42:00,52.0,51.0,30.06,North,1,6.0,10.0,96,-99.99,,,-99.99,,2013-05-07 14:42:00,
2013-05-07 10:52:00,52.0,51.0,30.06,North,1,6.0,10.0,96,-99.99,,,-99.99,,2013-05-07 14:52:00,
2013-05-07 11:00:00,52.0,50.0,30.09,NNW,331,10.0,13.0,95,-99.99,,,-99.99,,2013-05-07 15:00:00,
2013-05-07 11:33:00,52.0,50.0,30.09,NNW,331,10.0,13.0,95,-99.99,,,-99.99,,2013-05-07 15:33:00,
2013-05-07 11:43:00,52.0,50.0,30.09,NNW,331,10.0,13.0,95,-99.99,,,-99.99,,2013-05-07 15:43:00,
2013-05-07 11:53:00,52.0,50.0,30.09,NNW,331,10.0,13.0,95,-99.99,,,-99.99,,2013-05-07 15:53:00,
2013-05-07 12:00:00,54.0,50.0,30.06,ENE,69,10.0,17.0,87,-99.99,,,-99.99,,2013-05-07 16:00:00,
2013-05-07 12:22:00,54.0,50.0,30.06,ENE,69,10.0,17.0,87,-99.99,,,-99.99,,2013-05-07 16:22:00,
2013-05-07 12:32:00,54.0,50.0,30.06,ENE,69,10.0,17.0,87,-99.99,,,-99.99,,2013-05-07 16:32:00,
2013-05-07 12:42:00,54.0,50.0,30.06,ENE,69,10.0,17.0,87,-99.99,,,-99.99,,2013-05-07 16:42:00,
2013-05-07 12:52:00,54.0,50.0,30.06,ENE,69,10.0,17.0,87,-99.99,,,-99.99,,2013-05-07 16:52:00,
2013-05-07 13:00:00,57.0,51.0,30.06,NE,40,5.0,15.0,82,-99.99,,,-99.99,,2013-05-07 17:00:00,
2013-05-07 13:21:00,57.0,51.0,30.06,NE,40,5.0,15.0,82,-99.99,,,-99.99,,2013-05-07 17:21:00,
2013-05-07 13:32:00,57.0,51.0,30.06,NE,40,5.0,15.0,82,-99.99,,,-99.99,,2013-05-07 17:32:00,
2013-05-07 13:41:00,57.0,51.0,30.06,NE,40,5.0,15.0,82,-99.99,,,-99.99,,2013-05-07 17:41:00,
2013-05-07 13:53:00,57.0,51.0,30.06,NE,40,5.0,15.0,82,-99.99,,,-99.99,,2013-05-07 17:53:00,
2013-05-07 14:00:00,54.0,51.0,30.06,NW,309,9.0,17.0,90,-99.99,,,-99.99,,2013-05-07 18:00:00,
2013-05-07 14:21:00,54.0,51.0,30.06,NW,309,9.0,17.0,90,-99.99,,,-99.99,,2013-05-07 18:21:00,
2013-05-07 14:32:00,54.0,51.0,30.06,NW,309,9.0,17.0,90,-99.99,,,-99.99,,2013-05-07 18:32:00,
2013-05-07 14:42:00,54.0,51.0,30.06,NW,309,9.0,17.0,90,-99.99,,,-99.99,,2013-05-07 18:42:00,
2013-05-07 14:52:00,54.0,51.0,30.06,NW,309,9.0,17.0,90,-99.99,,,-99.99,,2013-05-07 18:52:00,
2013-05-07 15:00:00,53.0,51.0,30.03,WNW,283,10.0,16.0,93,-99.99,,,-99.99,,2013-05-07 19:00:00,
2013-05-07 15:22:00,53.0,51.0,30.03,WNW,283,10.0,16.0,93,-99.99,,,-99.99,,2013-05-07 19:22:00,
2013-05-07 15:32:00,53.0,51.0,30.03,WNW,283,10.0,16.0,93,-99.99,,,-99.99,,2013-05-07 19:32:00,
2013-05-07 15:42:00,53.0,51.0,30.03,WNW,283,10.0,16.0,93,-99.99,,,-99.99,,2013-05-07 19:42:00,
2013-05-07 15:52:00,53.0,51.0,30.03,WNW,283,10.0,16.0,93,-99.99,,,-99.99,,2013-05-07 19:52:00,
2013-05-07 17:00:00,56.0,53.0,30.00,ENE,63,3.0,11.0,90,-99.99,,,-99.99,,2013-05-07 21:00:00,
2013-05-07 17:33:00,56.0,53.0,30.00,ENE,63,3.0,11.0,90,-99.99,,,-99.99,,2013-05-07 21:33:00,
2013-05-07 17:43:00,56.0,53.0,30.00,ENE,63,3.0,11.0,90,-99.99,,,-99.99,,2013-05-07 21:43:00,
2013-05-07 17:53:00,56.0,53.0,30.00,ENE,63,3.0,11.0,90,-99.99,,,-99.99,,2013-05-07 21:53:00,
2013-05-07 18:00:00,55.0,52.0,30.00,East,100,2.0,16.0,91,-99.99,,,-99.99,,2013-05-07 22:00:00,
2013-05-07 18:22:00,55.0,52.0,30.00,East,100,2.0,16.0,91,-99.99,,,-99.99,,2013-05-07 22:22:00,
2013-05-07 18:33:00,55.0,52.0,30.00,East,100,2.0,16.0,91,-99.99,,,-99.99,,2013-05-07 22:33:00,
2013-05-07 18:42:00,55.0,52.0,30.00,East,100,2.0,16.0,91,-99.99,,,-99.99,,2013-05-07 22:42:00,
2013-05-07 18:52:00,55.0,52.0,30.00,East,100,2.0,16.0,91,-99.99,,,-99.99,,2013-05-07 22:52:00,
2013-05-07 19:00:00,54.0,52.0,30.00,East,85,6.0,10.0,92,-99.99,,,-99.99,,2013-05-07 23:00:00,
2013-05-07 19:32:00,54.0,52.0,30.00,East,85,6.0,10.0,92,-99.99,,,-99.99,,2013-05-07 23:32:00,
2013-05-07 19:42:00,54.0,52.0,30.00,East,85,6.0,10.0,92,-99.99,,,-99.99,,2013-05-07 23:42:00,
2013-05-07 19:52:00,54.0,52.0,30.00,East,85,6.0,10.0,92,-99.99,,,-99.99,,2013-05-07 23:52:00,
2013-05-07 20:00:00,54.0,52.0,30.00,NW,314,5.0,13.0,91,-99.99,,,-99.99,,2013-05-08 00:00:00,
2013-05-07 20:32:00,54.0,52.0,30.00,NW,314,5.0,13.0,91,-99.99,,,-99.99,,2013-05-08 00:32:00,
2013-05-07 20:42:00,54.0,52.0,30.00,NW,314,5.0,13.0,91,-99.99,,,-99.99,,2013-05-08 00:42:00,
2013-05-07 20:52:00,54.0,52.0,30.00,NW,314,5.0,13.0,91,-99.99,,,-99.99,,2013-05-08 00:52:00,
2013-05-07 21:00:00,54.0,52.0,30.00,NNW,339,4.0,-999.0,92,-99.99,,,-99.99,,2013-05-08 01:00:00,
2013-05-07 21:32:00,54.0,52.0,30.00,NNW,339,4.0,-999.0,92,-99.99,,,-99.99,,2013-05-08 01:32:00,
2013-05-07 21:42:00,54.0,52.0,30.00,NNW,339,4.0,-999.0,92,-99.99,,,-99.99,,2013-05-08 01:42:00,
2013-05-07 21:52:00,54.0,52.0,30.00,NNW,339,4.0,-999.0,92,-99.99,,,-99.99,,2013-05-08 01:52:00,
2013-05-07 22:00:00,54.0,52.0,30.03,East,81,4.0,13.0,91,-99.99,,,-99.99,,2013-05-08 02:00:00,
2013-05-07 22:22:00,54.0,52.0,30.03,East,81,4.0,13.0,91,-99.99,,,-99.99,,2013-05-08 02:22:00,
2013-05-07 22:32:00,54.0,52.0,30.03,East,81,4.0,13.0,91,-99.99,,,-99.99,,2013-05-08 02:32:00,
2013-05-07 22:42:00,54.0,52.0,30.03,East,81,4.0,13.0,91,-99.99,,,-99.99,,2013-05-08 02:42:00,
2013-05-07 22:52:00,54.0,52.0,30.03,East,81,4.0,13.0,91,-99.99,,,-99.99,,2013-05-08 02:52:00,
2013-05-07 23:00:00,52.0,50.0,30.00,NNE,27,5.0,11.0,93,-99.99,,,-99.99,,2013-05-08 03:00:00,
2013-05-07 23:22:00,52.0,50.0,30.00,NNE,27,5.0,11.0,93,-99.99,,,-99.99,,2013-05-08 03:22:00,
2013-05-07 23:33:00,52.0,50.0,30.00,NNE,27,5.0,11.0,93,-99.99,,,-99.99,,2013-05-08 03:33:00,
2013-05-07 23:43:00,52.0,50.0,30.00,NNE,27,5.0,11.0,93,-99.99,,,-99.99,,2013-05-08 03:43:00,
2013-05-07 23:52:00,52.0,50.0,30.00,NNE,27,5.0,11.0,93,-99.99,,,-99.99,,2013-05-08 03:52:00,